sensor_id;sensor_type;location;lat;lon;timestamp;pressure;altitude;pressure_sealevel;temperature;humidity
47366;BME280;33105;47.964;7.982;2023-04-24T00:00:37;95783.41;;;11.21;70.15
47366;BME280;33105;47.964;7.982;2023-04-24T00:03:41;95792.25;;;11.13;70.69
47366;BME280;33105;47.964;7.982;2023-04-24T00:06:42;95781.63;;;11.11;70.97
47366;BME280;33105;47.964;7.982;2023-04-24T00:09:44;95796.56;;;11.19;70.30
47366;BME280;33105;47.964;7.982;2023-04-24T00:12:45;95803.25;;;11.08;70.18
47366;BME280;33105;47.964;7.982;2023-04-24T00:15:46;95790.97;;;11.05;70.97
47366;BME280;33105;47.964;7.982;2023-04-24T00:18:48;95775.03;;;11.12;71.03
47366;BME280;33105;47.964;7.982;2023-04-24T00:21:49;95774.44;;;11.15;69.99
47366;BME280;33105;47.964;7.982;2023-04-24T00:24:50;95781.19;;;11.23;70.25
47366;BME280;33105;47.964;7.982;2023-04-24T00:27:52;95785.03;;;11.22;70.17
47366;BME280;33105;47.964;7.982;2023-04-24T00:30:53;95786.91;;;11.27;69.27
47366;BME280;33105;47.964;7.982;2023-04-24T00:33:54;95797.06;;;11.21;68.94
47366;BME280;33105;47.964;7.982;2023-04-24T00:36:56;95796.56;;;11.19;69.35
47366;BME280;33105;47.964;7.982;2023-04-24T00:39:57;95805.41;;;11.11;68.98
47366;BME280;33105;47.964;7.982;2023-04-24T00:42:58;95785.50;;;11.05;69.47
47366;BME280;33105;47.964;7.982;2023-04-24T00:45:59;95785.16;;;11.12;70.32
47366;BME280;33105;47.964;7.982;2023-04-24T00:49:02;95786.84;;;11.08;69.76
47366;BME280;33105;47.964;7.982;2023-04-24T00:52:05;95789.34;;;11.04;69.20
47366;BME280;33105;47.964;7.982;2023-04-24T00:55:09;95798.09;;;11.01;69.02
47366;BME280;33105;47.964;7.982;2023-04-24T00:58:11;95795.31;;;11.06;69.59
47366;BME280;33105;47.964;7.982;2023-04-24T01:01:13;95802.91;;;10.85;69.69
47366;BME280;33105;47.964;7.982;2023-04-24T01:04:16;95786.34;;;11.01;68.06
47366;BME280;33105;47.964;7.982;2023-04-24T01:07:20;95784.19;;;10.98;68.56
47366;BME280;33105;47.964;7.982;2023-04-24T01:10:22;95783.25;;;11.12;68.79
47366;BME280;33105;47.964;7.982;2023-04-24T01:13:27;95774.31;;;11.02;69.76
47366;BME280;33105;47.964;7.982;2023-04-24T01:16:28;95804.44;;;10.97;70.46
47366;BME280;33105;47.964;7.982;2023-04-24T01:19:29;95794.06;;;10.94;69.61
47366;BME280;33105;47.964;7.982;2023-04-24T01:22:33;95787.84;;;10.88;70.50
47366;BME280;33105;47.964;7.982;2023-04-24T01:25:36;95782.72;;;10.81;70.96
47366;BME280;33105;47.964;7.982;2023-04-24T01:28:37;95772.88;;;10.80;71.56
47366;BME280;33105;47.964;7.982;2023-04-24T01:31:40;95772.72;;;10.96;71.09
47366;BME280;33105;47.964;7.982;2023-04-24T01:34:42;95768.41;;;10.89;71.42
47366;BME280;33105;47.964;7.982;2023-04-24T01:37:43;95774.41;;;10.91;71.25
47366;BME280;33105;47.964;7.982;2023-04-24T01:40:46;95759.75;;;10.82;71.77
47366;BME280;33105;47.964;7.982;2023-04-24T01:43:48;95770.78;;;10.72;72.77
47366;BME280;33105;47.964;7.982;2023-04-24T01:46:49;95766.41;;;10.71;72.21
47366;BME280;33105;47.964;7.982;2023-04-24T01:49:51;95758.25;;;10.66;71.80
47366;BME280;33105;47.964;7.982;2023-04-24T01:52:53;95755.75;;;10.70;71.40
47366;BME280;33105;47.964;7.982;2023-04-24T01:55:54;95763.50;;;10.63;70.95
47366;BME280;33105;47.964;7.982;2023-04-24T01:58:56;95762.72;;;10.57;71.72
47366;BME280;33105;47.964;7.982;2023-04-24T02:01:58;95767.31;;;10.62;71.11
47366;BME280;33105;47.964;7.982;2023-04-24T02:04:59;95763.63;;;10.76;70.83
47366;BME280;33105;47.964;7.982;2023-04-24T02:08:00;95754.41;;;10.67;70.96
47366;BME280;33105;47.964;7.982;2023-04-24T02:11:02;95757.06;;;10.77;71.47
47366;BME280;33105;47.964;7.982;2023-04-24T02:14:03;95763.59;;;10.81;70.37
47366;BME280;33105;47.964;7.982;2023-04-24T02:17:04;95763.91;;;10.75;70.43
47366;BME280;33105;47.964;7.982;2023-04-24T02:20:06;95761.44;;;10.78;71.50
47366;BME280;33105;47.964;7.982;2023-04-24T02:23:08;95763.31;;;10.49;75.35
47366;BME280;33105;47.964;7.982;2023-04-24T02:26:09;95760.69;;;10.39;77.08
47366;BME280;33105;47.964;7.982;2023-04-24T02:29:10;95759.25;;;10.07;79.29
47366;BME280;33105;47.964;7.982;2023-04-24T02:32:12;95764.97;;;10.06;80.50
47366;BME280;33105;47.964;7.982;2023-04-24T02:35:13;95767.97;;;10.04;79.59
47366;BME280;33105;47.964;7.982;2023-04-24T02:38:14;95764.72;;;10.02;79.61
47366;BME280;33105;47.964;7.982;2023-04-24T02:41:18;95762.31;;;9.90;81.36
47366;BME280;33105;47.964;7.982;2023-04-24T02:44:19;95771.94;;;9.83;81.17
47366;BME280;33105;47.964;7.982;2023-04-24T02:47:20;95768.03;;;9.94;79.36
47366;BME280;33105;47.964;7.982;2023-04-24T02:50:24;95758.00;;;9.89;79.37
47366;BME280;33105;47.964;7.982;2023-04-24T02:53:25;95770.16;;;10.07;78.47
47366;BME280;33105;47.964;7.982;2023-04-24T02:56:26;95769.66;;;10.00;79.15
47366;BME280;33105;47.964;7.982;2023-04-24T02:59:28;95775.66;;;9.97;78.06
47366;BME280;33105;47.964;7.982;2023-04-24T03:02:30;95775.66;;;9.97;77.72
47366;BME280;33105;47.964;7.982;2023-04-24T03:05:31;95774.03;;;9.96;77.64
47366;BME280;33105;47.964;7.982;2023-04-24T03:08:32;95756.50;;;10.07;76.58
47366;BME280;33105;47.964;7.982;2023-04-24T03:11:33;95754.03;;;10.11;76.00
47366;BME280;33105;47.964;7.982;2023-04-24T03:14:35;95754.03;;;10.11;76.06
47366;BME280;33105;47.964;7.982;2023-04-24T03:17:36;95749.94;;;10.08;76.02
47366;BME280;33105;47.964;7.982;2023-04-24T03:20:37;95770.59;;;10.25;75.41
47366;BME280;33105;47.964;7.982;2023-04-24T03:23:39;95753.97;;;10.16;75.12
47366;BME280;33105;47.964;7.982;2023-04-24T03:26:40;95773.63;;;10.23;73.57
47366;BME280;33105;47.964;7.982;2023-04-24T03:30:02;95770.28;;;10.31;74.25
47366;BME280;33105;47.964;7.982;2023-04-24T03:33:14;95773.09;;;10.21;74.43
47366;BME280;33105;47.964;7.982;2023-04-24T03:36:24;95784.31;;;10.14;75.86
47366;BME280;33105;47.964;7.982;2023-04-24T03:39:27;95783.50;;;10.14;75.52
47366;BME280;33105;47.964;7.982;2023-04-24T03:42:30;95777.66;;;9.81;77.47
47366;BME280;33105;47.964;7.982;2023-04-24T03:45:31;95780.94;;;9.78;78.92
47366;BME280;33105;47.964;7.982;2023-04-24T03:48:32;95784.50;;;9.79;79.18
47366;BME280;33105;47.964;7.982;2023-04-24T03:51:34;95787.81;;;9.71;79.07
47366;BME280;33105;47.964;7.982;2023-04-24T03:54:44;95793.59;;;9.64;79.18
47366;BME280;33105;47.964;7.982;2023-04-24T03:57:49;95792.81;;;9.43;80.44
47366;BME280;33105;47.964;7.982;2023-04-24T04:00:56;95780.53;;;9.51;81.80
47366;BME280;33105;47.964;7.982;2023-04-24T04:04:23;95795.31;;;9.40;80.97
47366;BME280;33105;47.964;7.982;2023-04-24T04:07:25;95799.91;;;9.49;81.61
47366;BME280;33105;47.964;7.982;2023-04-24T04:10:26;95811.13;;;9.38;80.47
47366;BME280;33105;47.964;7.982;2023-04-24T04:13:28;95817.13;;;9.35;81.54
47366;BME280;33105;47.964;7.982;2023-04-24T04:16:29;95822.25;;;9.41;81.73
47366;BME280;33105;47.964;7.982;2023-04-24T04:19:36;95832.13;;;9.22;81.06
47366;BME280;33105;47.964;7.982;2023-04-24T04:22:38;95832.13;;;9.27;80.71
47366;BME280;33105;47.964;7.982;2023-04-24T04:25:42;95841.66;;;9.35;79.19
47366;BME280;33105;47.964;7.982;2023-04-24T04:28:44;95845.47;;;9.39;79.69
47366;BME280;33105;47.964;7.982;2023-04-24T04:31:46;95852.25;;;9.46;79.17
47366;BME280;33105;47.964;7.982;2023-04-24T04:34:48;95863.69;;;9.43;78.72
47366;BME280;33105;47.964;7.982;2023-04-24T04:37:51;95864.50;;;9.44;77.25
47366;BME280;33105;47.964;7.982;2023-04-24T04:41:10;95861.00;;;9.38;77.79
47366;BME280;33105;47.964;7.982;2023-04-24T04:44:12;95861.50;;;9.50;76.76
47366;BME280;33105;47.964;7.982;2023-04-24T04:47:13;95862.59;;;9.49;76.86
47366;BME280;33105;47.964;7.982;2023-04-24T04:50:15;95867.78;;;9.56;75.92
47366;BME280;33105;47.964;7.982;2023-04-24T04:53:20;95881.13;;;9.58;75.71
47366;BME280;33105;47.964;7.982;2023-04-24T04:56:21;95872.13;;;9.62;74.14
47366;BME280;33105;47.964;7.982;2023-04-24T04:59:24;95888.75;;;9.55;74.71
47366;BME280;33105;47.964;7.982;2023-04-24T05:02:31;95881.41;;;9.61;73.53
47366;BME280;33105;47.964;7.982;2023-04-24T05:05:32;95884.34;;;9.75;71.98
47366;BME280;33105;47.964;7.982;2023-04-24T05:08:34;95883.56;;;9.59;72.52
47366;BME280;33105;47.964;7.982;2023-04-24T05:11:38;95888.47;;;9.62;73.60
47366;BME280;33105;47.964;7.982;2023-04-24T05:14:40;95883.78;;;9.73;71.28
47366;BME280;33105;47.964;7.982;2023-04-24T05:17:41;95901.25;;;9.82;71.31
47366;BME280;33105;47.964;7.982;2023-04-24T05:20:43;95909.41;;;9.82;69.66
47366;BME280;33105;47.964;7.982;2023-04-24T05:23:45;95919.84;;;9.65;71.54
47366;BME280;33105;47.964;7.982;2023-04-24T05:26:50;95920.88;;;9.74;69.81
47366;BME280;33105;47.964;7.982;2023-04-24T05:29:57;95923.06;;;9.72;71.26
47366;BME280;33105;47.964;7.982;2023-04-24T05:32:58;95917.63;;;9.72;69.20
47366;BME280;33105;47.964;7.982;2023-04-24T05:35:59;95944.91;;;9.67;69.83
47366;BME280;33105;47.964;7.982;2023-04-24T05:39:01;95940.56;;;9.50;70.67
47366;BME280;33105;47.964;7.982;2023-04-24T05:42:02;95950.16;;;9.38;72.87
47366;BME280;33105;47.964;7.982;2023-04-24T05:45:05;95960.47;;;9.56;72.23
47366;BME280;33105;47.964;7.982;2023-04-24T05:48:07;95952.88;;;9.38;71.45
47366;BME280;33105;47.964;7.982;2023-04-24T05:51:09;95952.59;;;9.39;69.35
47366;BME280;33105;47.964;7.982;2023-04-24T05:54:11;95955.84;;;9.41;70.93
47366;BME280;33105;47.964;7.982;2023-04-24T05:57:13;95959.13;;;9.59;69.14
47366;BME280;33105;47.964;7.982;2023-04-24T06:00:44;95960.75;;;9.65;70.65
47366;BME280;33105;47.964;7.982;2023-04-24T06:03:48;95965.66;;;9.52;70.21
47366;BME280;33105;47.964;7.982;2023-04-24T06:06:49;95977.66;;;9.51;70.72
47366;BME280;33105;47.964;7.982;2023-04-24T06:09:52;95987.47;;;9.47;70.33
47366;BME280;33105;47.964;7.982;2023-04-24T06:12:54;95980.13;;;9.38;71.11
47366;BME280;33105;47.964;7.982;2023-04-24T06:15:57;95989.94;;;9.39;70.83
47366;BME280;33105;47.964;7.982;2023-04-24T06:19:06;95993.75;;;9.43;71.26
47366;BME280;33105;47.964;7.982;2023-04-24T06:22:08;95996.72;;;9.67;70.29
47366;BME280;33105;47.964;7.982;2023-04-24T06:25:09;95992.09;;;9.67;69.42
47366;BME280;33105;47.964;7.982;2023-04-24T06:28:10;95986.38;;;9.59;68.87
47366;BME280;33105;47.964;7.982;2023-04-24T06:31:11;95992.09;;;9.52;69.10
47366;BME280;33105;47.964;7.982;2023-04-24T06:34:13;96006.81;;;9.46;68.98
47366;BME280;33105;47.964;7.982;2023-04-24T06:37:15;96010.38;;;9.31;68.67
47366;BME280;33105;47.964;7.982;2023-04-24T06:40:17;96011.47;;;9.35;70.87
47366;BME280;33105;47.964;7.982;2023-04-24T06:43:19;96021.56;;;9.35;70.10
47366;BME280;33105;47.964;7.982;2023-04-24T06:46:22;96022.91;;;9.12;70.03
47366;BME280;33105;47.964;7.982;2023-04-24T06:49:24;96026.16;;;9.09;71.19
47366;BME280;33105;47.964;7.982;2023-04-24T06:52:25;96028.91;;;9.09;71.06
47366;BME280;33105;47.964;7.982;2023-04-24T06:55:27;96022.88;;;9.17;70.66
47366;BME280;33105;47.964;7.982;2023-04-24T06:58:30;96038.41;;;9.16;69.51
47366;BME280;33105;47.964;7.982;2023-04-24T07:01:31;96043.06;;;9.06;68.34
47366;BME280;33105;47.964;7.982;2023-04-24T07:04:32;96041.41;;;9.05;69.65
47366;BME280;33105;47.964;7.982;2023-04-24T07:07:33;96042.25;;;9.26;69.24
47366;BME280;33105;47.964;7.982;2023-04-24T07:10:35;96054.28;;;9.40;67.53
47366;BME280;33105;47.964;7.982;2023-04-24T07:13:36;96053.44;;;9.29;67.53
47366;BME280;33105;47.964;7.982;2023-04-24T07:16:42;96054.28;;;9.40;67.38
47366;BME280;33105;47.964;7.982;2023-04-24T07:19:43;96048.00;;;9.44;66.63
47366;BME280;33105;47.964;7.982;2023-04-24T07:22:45;96058.66;;;9.61;65.97
47366;BME280;33105;47.964;7.982;2023-04-24T07:25:46;96059.44;;;9.67;66.05
47366;BME280;33105;47.964;7.982;2023-04-24T07:28:47;96060.25;;;9.67;66.89
47366;BME280;33105;47.964;7.982;2023-04-24T07:31:49;96065.16;;;9.90;65.32
47366;BME280;33105;47.964;7.982;2023-04-24T07:34:50;96064.34;;;10.05;65.72
47366;BME280;33105;47.964;7.982;2023-04-24T07:37:52;96066.53;;;9.78;64.69
47366;BME280;33105;47.964;7.982;2023-04-24T07:40:54;96076.88;;;9.91;63.38
47366;BME280;33105;47.964;7.982;2023-04-24T07:43:56;96075.53;;;9.68;64.38
47366;BME280;33105;47.964;7.982;2023-04-24T07:46:57;96081.25;;;9.97;65.10
47366;BME280;33105;47.964;7.982;2023-04-24T07:49:58;96086.44;;;10.24;62.70
47366;BME280;33105;47.964;7.982;2023-04-24T07:53:00;96106.31;;;10.40;60.13
47366;BME280;33105;47.964;7.982;2023-04-24T07:56:01;96102.50;;;10.15;59.17
47366;BME280;33105;47.964;7.982;2023-04-24T07:59:02;96108.28;;;10.14;58.78
47366;BME280;33105;47.964;7.982;2023-04-24T08:02:03;96109.09;;;10.09;59.94
47366;BME280;33105;47.964;7.982;2023-04-24T08:05:06;96108.53;;;10.07;61.68
47366;BME280;33105;47.964;7.982;2023-04-24T08:08:08;96112.91;;;10.13;61.01
47366;BME280;33105;47.964;7.982;2023-04-24T08:11:09;96113.19;;;10.12;61.75
47366;BME280;33105;47.964;7.982;2023-04-24T08:14:10;96121.09;;;9.93;61.71
47366;BME280;33105;47.964;7.982;2023-04-24T08:17:13;96119.47;;;9.97;62.32
47366;BME280;33105;47.964;7.982;2023-04-24T08:20:15;96127.34;;;9.68;60.59
47366;BME280;33105;47.964;7.982;2023-04-24T08:23:16;96131.19;;;9.62;61.85
47366;BME280;33105;47.964;7.982;2023-04-24T08:26:17;96147.28;;;9.64;63.30
47366;BME280;33105;47.964;7.982;2023-04-24T08:29:18;96137.16;;;9.54;62.19
47366;BME280;33105;47.964;7.982;2023-04-24T08:32:20;96121.59;;;9.44;64.92
47366;BME280;33105;47.964;7.982;2023-04-24T08:35:21;96133.06;;;9.51;63.68
47366;BME280;33105;47.964;7.982;2023-04-24T08:38:23;96138.53;;;9.57;64.21
47366;BME280;33105;47.964;7.982;2023-04-24T08:41:26;96141.25;;;9.67;63.92
47366;BME280;33105;47.964;7.982;2023-04-24T08:44:28;96143.47;;;9.60;63.54
47366;BME280;33105;47.964;7.982;2023-04-24T08:47:29;96146.69;;;9.36;63.02
47366;BME280;33105;47.964;7.982;2023-04-24T08:50:31;96159.47;;;9.31;63.37
47366;BME280;33105;47.964;7.982;2023-04-24T08:53:33;96169.78;;;9.13;63.63
47366;BME280;33105;47.964;7.982;2023-04-24T08:56:36;96166.78;;;9.15;64.47
47366;BME280;33105;47.964;7.982;2023-04-24T08:59:40;96165.69;;;9.21;64.99
47366;BME280;33105;47.964;7.982;2023-04-24T09:02:42;96162.75;;;9.28;63.57
47366;BME280;33105;47.964;7.982;2023-04-24T09:05:46;96167.91;;;9.29;65.46
47366;BME280;33105;47.964;7.982;2023-04-24T09:08:49;96183.47;;;9.29;63.92
47366;BME280;33105;47.964;7.982;2023-04-24T09:11:52;96188.03;;;9.18;62.66
47366;BME280;33105;47.964;7.982;2023-04-24T09:14:58;96180.91;;;9.02;60.06
47366;BME280;33105;47.964;7.982;2023-04-24T09:18:01;96184.28;;;9.29;60.65
47366;BME280;33105;47.964;7.982;2023-04-24T09:21:06;96191.94;;;9.37;57.13
47366;BME280;33105;47.964;7.982;2023-04-24T09:24:15;96199.69;;;9.86;57.52
47366;BME280;33105;47.964;7.982;2023-04-24T09:27:18;96205.13;;;9.86;55.95
47366;BME280;33105;47.964;7.982;2023-04-24T09:30:21;96197.69;;;9.51;54.86
47366;BME280;33105;47.964;7.982;2023-04-24T09:33:23;96191.22;;;9.82;54.92
47366;BME280;33105;47.964;7.982;2023-04-24T09:36:29;96191.22;;;9.87;54.79
47366;BME280;33105;47.964;7.982;2023-04-24T09:39:33;96198.56;;;9.72;54.49
47366;BME280;33105;47.964;7.982;2023-04-24T09:42:35;96195.84;;;9.92;54.45
47366;BME280;33105;47.964;7.982;2023-04-24T09:45:37;96199.94;;;9.95;55.19
47366;BME280;33105;47.964;7.982;2023-04-24T09:48:39;96215.72;;;9.67;55.37
47366;BME280;33105;47.964;7.982;2023-04-24T09:51:42;96213.00;;;9.72;54.09
47366;BME280;33105;47.964;7.982;2023-04-24T09:54:52;96219.78;;;9.54;53.56
47366;BME280;33105;47.964;7.982;2023-04-24T09:58:01;96225.47;;;9.43;53.69
47366;BME280;33105;47.964;7.982;2023-04-24T10:01:02;96231.22;;;9.51;54.21
47366;BME280;33105;47.964;7.982;2023-04-24T10:04:04;96239.47;;;9.62;54.83
47366;BME280;33105;47.964;7.982;2023-04-24T10:07:05;96240.56;;;9.71;54.64
47366;BME280;33105;47.964;7.982;2023-04-24T10:10:07;96240.06;;;9.84;53.01
47366;BME280;33105;47.964;7.982;2023-04-24T10:13:10;96229.72;;;10.16;53.84
47366;BME280;33105;47.964;7.982;2023-04-24T10:16:11;96240.41;;;10.28;54.71
47366;BME280;33105;47.964;7.982;2023-04-24T10:19:15;96234.91;;;10.18;54.09
47366;BME280;33105;47.964;7.982;2023-04-24T10:22:17;96237.94;;;10.27;54.70
47366;BME280;33105;47.964;7.982;2023-04-24T10:25:32;96228.91;;;10.67;55.03
47366;BME280;33105;47.964;7.982;2023-04-24T10:28:33;96251.59;;;10.62;52.20
47366;BME280;33105;47.964;7.982;2023-04-24T10:31:36;96237.41;;;10.30;53.33
47366;BME280;33105;47.964;7.982;2023-04-24T10:34:38;96245.31;;;10.56;51.57
47366;BME280;33105;47.964;7.982;2023-04-24T10:37:48;96249.44;;;10.34;51.29
47366;BME280;33105;47.964;7.982;2023-04-24T10:40:51;96234.38;;;10.41;50.89
47366;BME280;33105;47.964;7.982;2023-04-24T10:44:15;96237.09;;;10.11;51.49
47366;BME280;33105;47.964;7.982;2023-04-24T10:47:16;96247.78;;;10.43;52.00
47366;BME280;33105;47.964;7.982;2023-04-24T10:50:18;96236.59;;;10.39;51.46
47366;BME280;33105;47.964;7.982;2023-04-24T10:53:21;96258.72;;;10.38;51.34
47366;BME280;33105;47.964;7.982;2023-04-24T10:56:24;96245.31;;;10.56;53.57
47366;BME280;33105;47.964;7.982;2023-04-24T10:59:27;96249.59;;;11.13;54.19
47366;BME280;33105;47.964;7.982;2023-04-24T11:02:36;96265.84;;;11.59;51.42
47366;BME280;33105;47.964;7.982;2023-04-24T11:06:05;96252.00;;;11.95;50.95
47366;BME280;33105;47.964;7.982;2023-04-24T11:09:08;96244.16;;;11.73;49.10
47366;BME280;33105;47.964;7.982;2023-04-24T11:12:11;96250.06;;;11.36;51.79
47366;BME280;33105;47.964;7.982;2023-04-24T11:15:14;96257.53;;;11.10;52.63
47366;BME280;33105;47.964;7.982;2023-04-24T11:18:22;96257.47;;;11.30;51.67
47366;BME280;33105;47.964;7.982;2023-04-24T11:21:23;96276.13;;;11.08;52.82
47366;BME280;33105;47.964;7.982;2023-04-24T11:24:49;96273.94;;;10.89;50.81
47366;BME280;33105;47.964;7.982;2023-04-24T11:28:05;96284.91;;;10.29;53.10
47366;BME280;33105;47.964;7.982;2023-04-24T11:31:35;96287.03;;;10.06;53.18
47366;BME280;33105;47.964;7.982;2023-04-24T11:34:38;96290.28;;;9.88;54.03
47366;BME280;33105;47.964;7.982;2023-04-24T11:37:42;96287.25;;;9.95;56.06
47366;BME280;33105;47.964;7.982;2023-04-24T11:40:43;96285.91;;;9.97;54.23
47366;BME280;33105;47.964;7.982;2023-04-24T11:43:46;96284.84;;;10.08;54.81
47366;BME280;33105;47.964;7.982;2023-04-24T11:46:47;96283.72;;;9.94;54.84
47366;BME280;33105;47.964;7.982;2023-04-24T11:49:50;96280.00;;;10.31;56.60
47366;BME280;33105;47.964;7.982;2023-04-24T11:52:51;96271.75;;;11.02;55.02
47366;BME280;33105;47.964;7.982;2023-04-24T11:55:52;96276.06;;;11.28;53.86
47366;BME280;33105;47.964;7.982;2023-04-24T11:58:54;96266.84;;;11.04;53.20
47366;BME280;33105;47.964;7.982;2023-04-24T12:01:55;96267.06;;;11.22;51.60
47366;BME280;33105;47.964;7.982;2023-04-24T12:04:57;96266.00;;;11.08;53.04
47366;BME280;33105;47.964;7.982;2023-04-24T12:07:58;96266.88;;;10.88;53.15
47366;BME280;33105;47.964;7.982;2023-04-24T12:11:04;96266.84;;;10.94;51.81
47366;BME280;33105;47.964;7.982;2023-04-24T12:14:11;96259.25;;;10.60;53.09
47366;BME280;33105;47.964;7.982;2023-04-24T12:17:13;96263.31;;;10.68;53.16
47366;BME280;33105;47.964;7.982;2023-04-24T12:20:14;96263.34;;;10.63;53.36
47366;BME280;33105;47.964;7.982;2023-04-24T12:23:16;96260.59;;;10.68;54.37
47366;BME280;33105;47.964;7.982;2023-04-24T12:26:19;96266.34;;;10.71;53.02
47366;BME280;33105;47.964;7.982;2023-04-24T12:29:20;96263.06;;;10.69;54.11
47366;BME280;33105;47.964;7.982;2023-04-24T12:32:22;96255.13;;;10.68;53.75
47366;BME280;33105;47.964;7.982;2023-04-24T12:35:25;96250.22;;;10.75;52.94
47366;BME280;33105;47.964;7.982;2023-04-24T12:38:27;96253.16;;;11.04;55.54
47366;BME280;33105;47.964;7.982;2023-04-24T12:41:30;96253.56;;;11.46;51.94
47366;BME280;33105;47.964;7.982;2023-04-24T12:44:33;96244.91;;;11.29;51.86
47366;BME280;33105;47.964;7.982;2023-04-24T12:47:35;96247.63;;;11.34;52.64
47366;BME280;33105;47.964;7.982;2023-04-24T12:50:38;96241.53;;;11.47;52.85
47366;BME280;33105;47.964;7.982;2023-04-24T12:53:39;96235.81;;;11.44;51.76
47366;BME280;33105;47.964;7.982;2023-04-24T12:56:41;96239.91;;;11.41;54.49
47366;BME280;33105;47.964;7.982;2023-04-24T12:59:42;96233.44;;;11.22;53.41
47366;BME280;33105;47.964;7.982;2023-04-24T13:02:43;96231.50;;;11.28;52.38
47366;BME280;33105;47.964;7.982;2023-04-24T13:05:44;96225.28;;;11.07;53.83
47366;BME280;33105;47.964;7.982;2023-04-24T13:08:46;96230.50;;;10.93;54.50
47366;BME280;33105;47.964;7.982;2023-04-24T13:11:49;96235.69;;;11.00;52.75
47366;BME280;33105;47.964;7.982;2023-04-24T13:14:51;96233.53;;;10.76;52.54
47366;BME280;33105;47.964;7.982;2023-04-24T13:17:52;96235.47;;;10.81;56.03
47366;BME280;33105;47.964;7.982;2023-04-24T13:20:53;96235.13;;;10.93;53.74
47366;BME280;33105;47.964;7.982;2023-04-24T13:23:54;96235.41;;;10.91;54.74
47366;BME280;33105;47.964;7.982;2023-04-24T13:26:55;96231.56;;;11.07;55.56
47366;BME280;33105;47.964;7.982;2023-04-24T13:29:57;96227.13;;;11.21;53.75
47366;BME280;33105;47.964;7.982;2023-04-24T13:32:59;96223.66;;;11.06;54.53
47366;BME280;33105;47.964;7.982;2023-04-24T13:36:00;96215.72;;;10.99;55.17
47366;BME280;33105;47.964;7.982;2023-04-24T13:39:02;96214.38;;;10.97;55.29
47366;BME280;33105;47.964;7.982;2023-04-24T13:42:05;96217.38;;;10.90;56.24
47366;BME280;33105;47.964;7.982;2023-04-24T13:45:06;96229.16;;;10.85;56.54
47366;BME280;33105;47.964;7.982;2023-04-24T13:48:08;96224.25;;;10.72;58.33
47366;BME280;33105;47.964;7.982;2023-04-24T13:51:10;96226.47;;;10.60;57.01
47366;BME280;33105;47.964;7.982;2023-04-24T13:54:11;96216.59;;;10.69;60.37
47366;BME280;33105;47.964;7.982;2023-04-24T13:57:13;96214.41;;;10.76;60.32
47366;BME280;33105;47.964;7.982;2023-04-24T14:00:15;96220.97;;;10.70;61.29
47366;BME280;33105;47.964;7.982;2023-04-24T14:03:17;96222.03;;;10.95;60.57
47366;BME280;33105;47.964;7.982;2023-04-24T14:06:19;96213.75;;;11.15;59.81
47366;BME280;33105;47.964;7.982;2023-04-24T14:09:20;96211.28;;;11.18;59.14
47366;BME280;33105;47.964;7.982;2023-04-24T14:12:22;96207.41;;;11.35;59.31
47366;BME280;33105;47.964;7.982;2023-04-24T14:15:23;96204.34;;;11.46;56.02
47366;BME280;33105;47.964;7.982;2023-04-24T14:18:24;96202.25;;;11.23;56.11
47366;BME280;33105;47.964;7.982;2023-04-24T14:21:25;96200.03;;;11.30;55.33
47366;BME280;33105;47.964;7.982;2023-04-24T14:24:27;96198.03;;;11.51;57.23
47366;BME280;33105;47.964;7.982;2023-04-24T14:27:28;96194.91;;;11.73;55.69
47366;BME280;33105;47.964;7.982;2023-04-24T14:30:29;96194.63;;;11.74;53.84
47366;BME280;33105;47.964;7.982;2023-04-24T14:33:30;96207.09;;;11.96;55.84
47366;BME280;33105;47.964;7.982;2023-04-24T14:36:32;96203.63;;;11.75;53.55
47366;BME280;33105;47.964;7.982;2023-04-24T14:39:33;96212.53;;;11.46;54.33
47366;BME280;33105;47.964;7.982;2023-04-24T14:42:34;96214.28;;;11.27;55.45
47366;BME280;33105;47.964;7.982;2023-04-24T14:45:37;96219.53;;;11.13;55.10
47366;BME280;33105;47.964;7.982;2023-04-24T14:48:38;96208.09;;;10.96;52.84
47366;BME280;33105;47.964;7.982;2023-04-24T14:51:39;96211.13;;;10.74;53.70
47366;BME280;33105;47.964;7.982;2023-04-24T14:54:42;96228.34;;;10.65;51.87
47366;BME280;33105;47.964;7.982;2023-04-24T14:57:43;96218.28;;;10.55;53.34
47366;BME280;33105;47.964;7.982;2023-04-24T15:00:44;96210.06;;;10.70;53.63
47366;BME280;33105;47.964;7.982;2023-04-24T15:03:46;96210.03;;;10.80;52.96
47366;BME280;33105;47.964;7.982;2023-04-24T15:06:47;96211.41;;;10.78;54.39
47366;BME280;33105;47.964;7.982;2023-04-24T15:09:48;96214.09;;;10.98;52.77
47366;BME280;33105;47.964;7.982;2023-04-24T15:12:50;96217.09;;;11.07;54.13
47366;BME280;33105;47.964;7.982;2023-04-24T15:15:51;96216.19;;;11.21;53.20
47366;BME280;33105;47.964;7.982;2023-04-24T15:18:52;96214.28;;;11.27;53.92
47366;BME280;33105;47.964;7.982;2023-04-24T15:21:53;96215.38;;;11.21;53.02
47366;BME280;33105;47.964;7.982;2023-04-24T15:24:54;96211.53;;;11.32;51.59
47366;BME280;33105;47.964;7.982;2023-04-24T15:27:57;96219.19;;;11.30;52.40
47366;BME280;33105;47.964;7.982;2023-04-24T15:31:00;96216.97;;;11.37;53.13
47366;BME280;33105;47.964;7.982;2023-04-24T15:34:01;96218.63;;;11.33;52.85
47366;BME280;33105;47.964;7.982;2023-04-24T15:37:03;96206.09;;;11.22;53.38
47366;BME280;33105;47.964;7.982;2023-04-24T15:40:05;96214.09;;;11.03;56.47
47366;BME280;33105;47.964;7.982;2023-04-24T15:43:07;96215.44;;;11.11;55.58
47366;BME280;33105;47.964;7.982;2023-04-24T15:46:09;96210.44;;;11.28;53.44
47366;BME280;33105;47.964;7.982;2023-04-24T15:49:11;96207.25;;;11.06;55.14
47366;BME280;33105;47.964;7.982;2023-04-24T15:52:12;96209.97;;;11.11;56.77
47366;BME280;33105;47.964;7.982;2023-04-24T15:55:14;96203.81;;;11.39;55.84
47366;BME280;33105;47.964;7.982;2023-04-24T15:58:16;96208.81;;;11.22;55.40
47366;BME280;33105;47.964;7.982;2023-04-24T16:01:18;96209.09;;;11.25;54.89
47366;BME280;33105;47.964;7.982;2023-04-24T16:04:19;96221.41;;;11.18;56.17
47366;BME280;33105;47.964;7.982;2023-04-24T16:07:20;96198.41;;;11.24;53.14
47366;BME280;33105;47.964;7.982;2023-04-24T16:10:22;96211.59;;;11.12;55.15
47366;BME280;33105;47.964;7.982;2023-04-24T16:13:23;96209.44;;;11.04;55.07